createdAt,value
2023-03-10T00:01:29.537Z,98314.42
2023-03-10T00:03:59.694Z,98326.52
2023-03-10T00:06:30.685Z,98325.93
2023-03-10T00:08:59.981Z,98319.86
2023-03-10T00:11:29.042Z,98311.45
2023-03-10T00:13:57.730Z,98310.50
2023-03-10T00:16:28.588Z,98313.42
2023-03-10T00:18:57.578Z,98312.80
2023-03-10T00:21:28.708Z,98308.85
2023-03-10T00:23:57.795Z,98307.34
2023-03-10T00:26:29.298Z,98306.73
2023-03-10T00:28:58.383Z,98303.70
2023-03-10T00:31:28.682Z,98305.61
2023-03-10T00:33:58.479Z,98304.21
2023-03-10T00:36:29.454Z,98301.86
2023-03-10T00:39:02.808Z,98302.19
2023-03-10T00:41:34.432Z,98301.14
2023-03-10T00:44:03.976Z,98286.91
2023-03-10T00:46:36.691Z,98284.71
2023-03-10T00:49:07.117Z,98275.36
2023-03-10T00:51:36.494Z,98273.02
2023-03-10T00:54:05.176Z,98272.11
2023-03-10T00:56:33.977Z,98264.52
2023-03-10T00:59:02.840Z,98257.72
2023-03-10T01:01:37.292Z,98260.03
2023-03-10T01:04:09.137Z,98253.09
2023-03-10T01:06:37.913Z,98250.84
2023-03-10T01:09:07.233Z,98245.15
2023-03-10T01:11:36.629Z,98239.37
2023-03-10T01:14:07.279Z,98237.88
2023-03-10T01:16:35.961Z,98239.03
2023-03-10T01:19:04.936Z,98242.67
2023-03-10T01:21:36.495Z,98240.59
2023-03-10T01:24:06.609Z,98233.77
2023-03-10T01:26:35.818Z,98231.28
2023-03-10T01:29:04.895Z,98226.27
2023-03-10T01:31:33.795Z,98223.81
2023-03-10T01:34:02.696Z,98221.32
2023-03-10T01:36:31.473Z,98215.76
2023-03-10T01:39:00.855Z,98211.10
2023-03-10T01:41:30.361Z,98203.84
2023-03-10T01:43:59.165Z,98197.55
2023-03-10T01:46:27.790Z,98195.19
2023-03-10T01:49:01.863Z,98192.22
2023-03-10T01:51:33.855Z,98186.01
2023-03-10T01:54:05.457Z,98179.16
2023-03-10T01:56:35.391Z,98174.69
2023-03-10T01:59:04.252Z,98165.20
2023-03-10T02:01:33.569Z,98167.23
2023-03-10T02:04:27.750Z,98164.29
2023-03-10T02:06:57.366Z,98166.20
2023-03-10T02:09:26.544Z,98162.52
2023-03-10T02:11:56.765Z,98157.43
2023-03-10T02:14:26.092Z,98159.00
2023-03-10T02:16:54.972Z,98154.73
2023-03-10T02:20:01.350Z,98153.47
2023-03-10T02:22:32.292Z,98149.09
2023-03-10T02:25:25.164Z,98140.94
2023-03-10T02:27:54.562Z,98136.52
2023-03-10T02:30:25.473Z,98134.92
2023-03-10T02:32:56.946Z,98134.27
2023-03-10T02:35:25.712Z,98126.05
2023-03-10T02:37:59.279Z,98126.02
2023-03-10T02:40:45.099Z,98128.84
2023-03-10T02:43:31.317Z,98131.11
2023-03-10T02:46:05.922Z,98129.03
2023-03-10T02:48:39.305Z,98118.89
2023-03-10T02:51:17.697Z,98120.06
2023-03-10T02:53:46.314Z,98116.27
2023-03-10T02:56:15.815Z,98103.50
2023-03-10T02:58:45.574Z,98091.34
2023-03-10T03:01:14.571Z,98084.25
2023-03-10T03:03:43.475Z,98082.65
2023-03-10T03:06:13.620Z,98080.84
2023-03-10T03:08:42.348Z,98076.15
2023-03-10T03:11:13.723Z,98074.00
2023-03-10T03:13:42.952Z,98071.95
2023-03-10T03:16:13.953Z,98071.79
2023-03-10T03:18:44.241Z,98068.16
2023-03-10T03:21:17.553Z,98063.30
2023-03-10T03:23:47.369Z,98061.48
2023-03-10T03:26:21.044Z,98053.45
2023-03-10T03:28:50.227Z,98051.98
2023-03-10T03:31:23.725Z,98045.73
2023-03-10T03:33:55.269Z,98039.31
2023-03-10T03:36:24.224Z,98036.08
2023-03-10T03:38:53.417Z,98028.88
2023-03-10T03:41:23.169Z,98028.66
2023-03-10T03:43:51.955Z,98024.97
2023-03-10T03:46:21.826Z,98024.36
2023-03-10T03:48:51.006Z,98022.09
2023-03-10T03:51:20.064Z,98021.86
2023-03-10T03:53:48.847Z,98016.77
2023-03-10T03:56:18.055Z,98015.60
2023-03-10T03:58:47.146Z,98017.82
2023-03-10T04:01:16.360Z,98015.73
2023-03-10T04:03:48.731Z,98013.49
2023-03-10T04:06:17.919Z,98005.65
2023-03-10T04:08:49.805Z,98006.96
2023-03-10T04:11:18.464Z,98005.97
2023-03-10T04:13:48.269Z,98000.85
2023-03-10T04:16:17.502Z,97994.36
2023-03-10T04:18:46.790Z,97990.90
2023-03-10T04:21:17.974Z,97990.86
2023-03-10T04:23:47.634Z,97989.33
2023-03-10T04:26:18.490Z,97985.53
2023-03-10T04:28:47.373Z,97986.84
2023-03-10T04:31:19.409Z,97984.92
2023-03-10T04:33:49.134Z,97983.33
2023-03-10T04:36:19.558Z,97977.37
2023-03-10T04:38:49.775Z,97969.65
2023-03-10T04:41:18.560Z,97966.84
2023-03-10T04:43:48.320Z,97955.15
2023-03-10T04:46:18.222Z,97957.59
2023-03-10T04:48:48.324Z,97954.00
2023-03-10T04:51:17.073Z,97949.44
2023-03-10T04:53:52.737Z,97951.07
2023-03-10T04:56:22.159Z,97953.68
2023-03-10T04:58:51.254Z,97957.57
2023-03-10T05:01:20.457Z,97959.81
2023-03-10T05:03:52.513Z,97954.13
2023-03-10T05:06:22.533Z,97945.66
2023-03-10T05:08:58.292Z,97943.41
2023-03-10T05:11:27.069Z,97945.71
2023-03-10T05:13:55.958Z,97943.45
2023-03-10T05:16:24.746Z,97944.91
2023-03-10T05:18:54.536Z,97944.15
2023-03-10T05:21:26.508Z,97938.09
2023-03-10T05:23:56.440Z,97935.59
2023-03-10T05:26:26.640Z,97933.59
2023-03-10T05:28:55.565Z,97931.95
2023-03-10T05:31:37.722Z,97923.59
2023-03-10T05:34:11.251Z,97928.85
2023-03-10T05:36:41.249Z,97929.48
2023-03-10T05:39:11.298Z,97928.90
2023-03-10T05:41:43.428Z,97924.79
2023-03-10T05:44:13.608Z,97920.84
2023-03-10T05:46:42.629Z,97916.12
2023-03-10T05:49:11.441Z,97915.59
2023-03-10T05:51:40.540Z,97914.13
2023-03-10T05:54:10.349Z,97912.66
2023-03-10T05:56:39.053Z,97911.20
2023-03-10T05:59:07.910Z,97905.81
2023-03-10T06:01:37.847Z,97903.62
2023-03-10T06:04:07.094Z,97897.55
2023-03-10T06:06:35.836Z,97890.91
2023-03-10T06:09:05.043Z,97884.31
2023-03-10T06:11:34.524Z,97877.10
2023-03-10T06:14:03.433Z,97871.67
2023-03-10T06:16:33.529Z,97860.48
2023-03-10T06:19:02.162Z,97856.82
2023-03-10T06:21:32.131Z,97850.42
2023-03-10T06:24:01.133Z,97841.98
2023-03-10T06:26:30.028Z,97847.04
2023-03-10T06:28:58.733Z,97847.38
2023-03-10T06:31:28.188Z,97845.16
2023-03-10T06:33:57.916Z,97843.24
2023-03-10T06:36:28.845Z,97840.70
2023-03-10T06:38:58.453Z,97844.05
2023-03-10T06:41:28.470Z,97850.46
2023-03-10T06:43:57.071Z,97843.92
2023-03-10T06:46:26.087Z,97840.69
2023-03-10T06:48:55.554Z,97841.66
2023-03-10T06:51:24.456Z,97841.17
2023-03-10T06:53:55.594Z,97844.55
2023-03-10T06:56:24.478Z,97852.50
2023-03-10T06:58:53.272Z,97855.02
2023-03-10T07:01:31.194Z,97858.40
2023-03-10T07:04:01.648Z,97860.36
2023-03-10T07:06:31.015Z,97857.56
2023-03-10T07:09:01.333Z,97857.16
2023-03-10T07:11:30.019Z,97851.80
2023-03-10T07:13:58.889Z,97850.20
2023-03-10T07:16:27.409Z,97846.64
2023-03-10T07:18:56.171Z,97846.82
2023-03-10T07:21:24.983Z,97848.11
2023-03-10T07:23:53.748Z,97850.39
2023-03-10T07:26:22.634Z,97844.76
2023-03-10T07:28:51.419Z,97843.94
2023-03-10T07:31:20.244Z,97836.38
2023-03-10T07:33:50.259Z,97833.69
2023-03-10T07:36:20.126Z,97831.67
2023-03-10T07:38:49.964Z,97820.00
2023-03-10T07:41:20.691Z,97815.11
2023-03-10T07:43:53.214Z,97811.16
2023-03-10T07:46:22.732Z,97818.13
2023-03-10T07:48:53.100Z,97814.29
2023-03-10T07:51:21.989Z,97816.33
2023-03-10T07:53:51.910Z,97818.31
2023-03-10T07:56:20.477Z,97810.85
2023-03-10T07:58:50.364Z,97813.15
2023-03-10T08:01:21.240Z,97820.14
2023-03-10T08:03:50.018Z,97822.75
2023-03-10T08:06:29.369Z,97826.59
2023-03-10T08:08:59.565Z,97829.78
2023-03-10T08:11:28.393Z,97839.84
2023-03-10T08:13:57.191Z,97840.60
2023-03-10T08:16:25.979Z,97843.73
2023-03-10T08:18:55.132Z,97848.86
2023-03-10T08:21:23.813Z,97843.56
2023-03-10T08:23:52.613Z,97840.67
2023-03-10T08:26:21.881Z,97839.32
2023-03-10T08:28:50.593Z,97842.54
2023-03-10T08:31:20.673Z,97844.61
2023-03-10T08:33:49.803Z,97840.86
2023-03-10T08:36:24.057Z,97837.63
2023-03-10T08:38:54.748Z,97838.42
2023-03-10T08:41:36.212Z,97838.41
2023-03-10T08:44:06.354Z,97834.67
2023-03-10T08:46:35.314Z,97829.75
2023-03-10T08:49:03.936Z,97829.39
2023-03-10T08:51:32.722Z,97831.73
2023-03-10T08:54:01.610Z,97832.25
2023-03-10T08:56:31.025Z,97826.09
2023-03-10T08:59:01.022Z,97832.39
2023-03-10T09:01:35.424Z,97839.25
2023-03-10T09:04:06.156Z,97834.08
2023-03-10T09:06:35.300Z,97830.83
2023-03-10T09:09:05.606Z,97825.33
2023-03-10T09:11:38.962Z,97831.16
2023-03-10T09:14:10.142Z,97825.90
2023-03-10T09:16:40.242Z,97827.82
2023-03-10T09:19:09.251Z,97834.80
2023-03-10T09:21:38.653Z,97838.48
2023-03-10T09:24:07.651Z,97833.80
2023-03-10T09:26:36.535Z,97833.70
2023-03-10T09:29:05.647Z,97849.31
2023-03-10T09:31:36.860Z,97836.92
2023-03-10T09:34:07.160Z,97824.67
2023-03-10T09:36:36.161Z,97822.52
2023-03-10T09:39:05.829Z,97816.73
2023-03-10T09:41:46.707Z,97811.52
2023-03-10T09:44:18.434Z,97807.40
2023-03-10T09:47:14.461Z,97812.07
2023-03-10T09:50:12.230Z,97810.36
2023-03-10T09:52:53.311Z,97794.77
2023-03-10T09:55:24.131Z,97793.92
2023-03-10T09:57:55.437Z,97795.20
2023-03-10T10:00:35.176Z,97793.05
2023-03-10T10:03:12.386Z,97792.10
2023-03-10T10:05:43.155Z,97786.23
2023-03-10T10:08:28.091Z,97784.53
2023-03-10T10:10:59.961Z,97782.84
2023-03-10T10:13:30.851Z,97781.13
2023-03-10T10:16:24.623Z,97772.73
2023-03-10T10:19:20.175Z,97771.27
2023-03-10T10:22:22.072Z,97774.66
2023-03-10T10:25:09.093Z,97778.11
2023-03-10T10:27:39.093Z,97800.90
2023-03-10T10:30:46.929Z,97799.70
2023-03-10T10:33:18.062Z,97805.66
2023-03-10T10:36:02.799Z,97814.54
2023-03-10T10:38:32.723Z,97822.06
2023-03-10T10:41:07.813Z,97828.96
2023-03-10T10:43:44.893Z,97833.05
2023-03-10T10:46:16.453Z,97831.06
2023-03-10T10:48:49.354Z,97827.17
2023-03-10T10:51:29.410Z,97825.58
2023-03-10T10:54:04.923Z,97819.95
2023-03-10T10:56:33.766Z,97815.55
2023-03-10T10:59:22.779Z,97809.64
2023-03-10T11:01:57.369Z,97801.95
2023-03-10T11:04:31.690Z,97801.41
2023-03-10T11:07:12.920Z,97804.10
2023-03-10T11:09:41.629Z,97805.23
2023-03-10T11:12:20.632Z,97792.44
2023-03-10T11:15:25.341Z,97782.69
2023-03-10T11:17:57.871Z,97788.26
2023-03-10T11:20:41.438Z,97781.77
2023-03-10T11:23:27.392Z,97775.11
2023-03-10T11:26:14.524Z,97768.34
2023-03-10T11:28:46.785Z,97761.39
2023-03-10T11:31:46.400Z,97761.92
2023-03-10T11:34:32.303Z,97756.30
2023-03-10T11:37:03.728Z,97753.64
2023-03-10T11:39:56.473Z,97756.27
2023-03-10T11:42:36.073Z,97759.46
2023-03-10T11:45:17.409Z,97752.36
2023-03-10T11:48:04.450Z,97752.52
2023-03-10T11:50:55.303Z,97750.30
2023-03-10T11:53:50.559Z,97748.67
2023-03-10T11:56:23.836Z,97750.34
2023-03-10T11:58:52.553Z,97746.81
2023-03-10T12:01:32.222Z,97746.39
2023-03-10T12:04:28.191Z,97744.24
2023-03-10T12:07:18.481Z,97738.54
2023-03-10T12:09:54.693Z,97738.34
2023-03-10T12:12:33.155Z,97735.61
2023-03-10T12:15:04.438Z,97729.63
2023-03-10T12:17:33.082Z,97731.23
2023-03-10T12:20:14.844Z,97737.06
2023-03-10T12:22:57.500Z,97736.80
2023-03-10T12:25:29.682Z,97731.27
2023-03-10T12:28:22.638Z,97730.59
2023-03-10T12:31:11.296Z,97727.06
2023-03-10T12:33:51.209Z,97725.20
2023-03-10T12:36:34.735Z,97725.62
2023-03-10T12:39:30.147Z,97720.95
2023-03-10T12:42:00.581Z,97719.38
2023-03-10T12:44:37.979Z,97724.37
2023-03-10T12:47:09.686Z,97727.05
2023-03-10T12:49:41.486Z,97733.48
2023-03-10T12:52:46.835Z,97728.20
2023-03-10T12:55:22.487Z,97723.79
2023-03-10T12:58:09.415Z,97726.04
2023-03-10T13:00:59.628Z,97725.61
2023-03-10T13:03:35.992Z,97726.30
2023-03-10T13:06:08.643Z,97729.63
2023-03-10T13:08:40.300Z,97731.56
2023-03-10T13:11:30.992Z,97727.20
2023-03-10T13:14:13.317Z,97719.98
2023-03-10T13:16:42.560Z,97716.86
2023-03-10T13:19:21.986Z,97716.60
2023-03-10T13:21:52.760Z,97714.72
2023-03-10T13:24:36.216Z,97714.72
2023-03-10T13:27:12.143Z,97714.45
2023-03-10T13:29:53.793Z,97720.73
2023-03-10T13:32:23.038Z,97721.62
2023-03-10T13:34:52.037Z,97715.98
2023-03-10T13:37:20.833Z,97712.90
2023-03-10T13:39:49.608Z,97714.77
2023-03-10T13:42:37.206Z,97705.16
2023-03-10T13:45:23.235Z,97703.55
2023-03-10T13:47:53.234Z,97710.27
2023-03-10T13:50:21.960Z,97711.22
2023-03-10T13:52:59.940Z,97711.59
2023-03-10T13:55:29.459Z,97711.17
2023-03-10T13:57:58.641Z,97709.01
2023-03-10T14:00:27.867Z,97707.99
2023-03-10T14:02:56.761Z,97704.41
2023-03-10T14:05:47.239Z,97706.67
2023-03-10T14:08:29.431Z,97708.52
2023-03-10T14:11:22.998Z,97709.45
2023-03-10T14:13:52.186Z,97715.71
2023-03-10T14:16:20.886Z,97716.50
2023-03-10T14:18:49.758Z,97713.61
2023-03-10T14:21:33.289Z,97707.48
2023-03-10T14:24:14.678Z,97703.62
2023-03-10T14:26:43.973Z,97696.09
2023-03-10T14:29:17.501Z,97689.83
2023-03-10T14:31:53.056Z,97687.73
2023-03-10T14:34:21.915Z,97680.90
2023-03-10T14:36:50.689Z,97683.32
2023-03-10T14:39:20.735Z,97683.73
2023-03-10T14:41:49.605Z,97686.05
2023-03-10T14:44:18.297Z,97681.73
2023-03-10T14:46:48.364Z,97681.55
2023-03-10T14:49:17.091Z,97679.41
2023-03-10T14:51:45.823Z,97677.79
2023-03-10T14:54:18.965Z,97674.14
2023-03-10T14:56:48.277Z,97673.48
2023-03-10T14:59:17.053Z,97673.21
2023-03-10T15:01:45.867Z,97665.50
2023-03-10T15:04:18.598Z,97661.02
2023-03-10T15:06:47.621Z,97656.15
2023-03-10T15:09:17.636Z,97654.45
2023-03-10T15:11:46.730Z,97651.20
2023-03-10T15:14:19.285Z,97650.42
2023-03-10T15:16:48.219Z,97649.66
2023-03-10T15:19:25.092Z,97650.67
2023-03-10T15:21:55.308Z,97647.06
2023-03-10T15:24:25.317Z,97641.70
2023-03-10T15:26:54.113Z,97642.29
2023-03-10T15:29:24.136Z,97643.04
2023-03-10T15:31:53.002Z,97636.52
2023-03-10T15:34:22.124Z,97622.91
2023-03-10T15:36:51.212Z,97617.88
2023-03-10T15:39:30.991Z,97613.31
2023-03-10T15:42:01.176Z,97617.23
2023-03-10T15:44:29.810Z,97617.77
2023-03-10T15:46:58.713Z,97616.66
2023-03-10T15:49:27.641Z,97610.09
2023-03-10T15:51:56.553Z,97607.58
2023-03-10T15:54:25.416Z,97603.79
2023-03-10T15:56:53.933Z,97602.15
2023-03-10T15:59:23.193Z,97599.24
2023-03-10T16:01:53.040Z,97597.33
2023-03-10T16:04:24.245Z,97600.09
2023-03-10T16:06:52.861Z,97602.86
2023-03-10T16:09:21.959Z,97606.48
2023-03-10T16:11:51.350Z,97603.64
2023-03-10T16:14:20.307Z,97601.16
2023-03-10T16:16:49.525Z,97601.48
2023-03-10T16:19:18.713Z,97598.44
2023-03-10T16:21:47.808Z,97598.67
2023-03-10T16:24:16.734Z,97597.79
2023-03-10T16:26:46.107Z,97595.83
2023-03-10T16:29:20.491Z,97591.09
2023-03-10T16:31:49.474Z,97592.89
2023-03-10T16:34:19.435Z,97594.55
2023-03-10T16:36:50.369Z,97593.70
2023-03-10T16:39:20.193Z,97591.82
2023-03-10T16:41:51.033Z,97591.84
2023-03-10T16:44:21.351Z,97586.14
2023-03-10T16:46:51.586Z,97587.60
2023-03-10T16:49:20.963Z,97586.67
2023-03-10T16:51:51.336Z,97583.66
2023-03-10T16:54:22.647Z,97578.95
2023-03-10T16:56:53.858Z,97576.47
2023-03-10T16:59:25.755Z,97574.80
2023-03-10T17:01:56.263Z,97579.50
2023-03-10T17:04:26.091Z,97575.71
2023-03-10T17:06:55.070Z,97577.85
2023-03-10T17:09:26.635Z,97575.83
2023-03-10T17:11:56.265Z,97580.09
2023-03-10T17:14:25.205Z,97585.22
2023-03-10T17:16:56.473Z,97587.61
2023-03-10T17:19:30.371Z,97595.29
2023-03-10T17:22:00.829Z,97602.05
2023-03-10T17:24:30.011Z,97602.88
2023-03-10T17:26:59.853Z,97610.45
2023-03-10T17:29:29.119Z,97607.68
2023-03-10T17:31:58.874Z,97609.74
2023-03-10T17:34:29.932Z,97608.76
2023-03-10T17:36:59.384Z,97600.23
2023-03-10T17:39:30.273Z,97593.31
2023-03-10T17:42:00.665Z,97593.86
2023-03-10T17:44:30.791Z,97585.38
2023-03-10T17:47:01.455Z,97580.65
2023-03-10T17:49:33.940Z,97574.77
2023-03-10T17:52:06.964Z,97573.90
2023-03-10T17:54:41.714Z,97570.34
2023-03-10T17:57:12.126Z,97570.63
2023-03-10T17:59:43.468Z,97566.44
2023-03-10T18:02:13.302Z,97571.44
2023-03-10T18:04:46.239Z,97570.68
2023-03-10T18:07:20.388Z,97572.86
2023-03-10T18:09:52.256Z,97581.41
2023-03-10T18:12:23.908Z,97582.35
2023-03-10T18:14:53.908Z,97585.45
2023-03-10T18:17:23.748Z,97588.69
2023-03-10T18:19:55.489Z,97580.83
2023-03-10T18:22:25.450Z,97581.73
2023-03-10T18:24:58.800Z,97575.14
2023-03-10T18:27:35.073Z,97572.57
2023-03-10T18:30:06.403Z,97580.97
2023-03-10T18:32:39.545Z,97581.80
2023-03-10T18:35:12.507Z,97581.29
2023-03-10T18:37:49.049Z,97590.41
2023-03-10T18:40:20.019Z,97585.77
2023-03-10T18:42:51.569Z,97582.08
2023-03-10T18:45:26.002Z,97581.45
2023-03-10T18:47:56.046Z,97576.95
2023-03-10T18:50:26.400Z,97587.05
2023-03-10T18:52:57.645Z,97583.09
2023-03-10T18:55:28.646Z,97574.91
2023-03-10T18:58:00.863Z,97573.79
2023-03-10T19:00:31.906Z,97581.90
2023-03-10T19:03:02.715Z,97577.89
2023-03-10T19:05:33.383Z,97570.84
2023-03-10T19:08:06.085Z,97570.17
2023-03-10T19:10:40.230Z,97577.16
2023-03-10T19:13:09.770Z,97576.59
2023-03-10T19:15:41.105Z,97576.48
2023-03-10T19:18:11.455Z,97575.81
2023-03-10T19:20:42.333Z,97578.52
2023-03-10T19:23:13.531Z,97573.49
2023-03-10T19:25:44.690Z,97570.95
2023-03-10T19:28:16.140Z,97568.88
2023-03-10T19:30:46.639Z,97567.35
2023-03-10T19:33:17.043Z,97570.60
2023-03-10T19:35:47.633Z,97573.67
2023-03-10T19:38:18.063Z,97575.08
2023-03-10T19:40:50.723Z,97567.34
2023-03-10T19:43:23.220Z,97566.14
2023-03-10T19:45:59.986Z,97555.30
2023-03-10T19:48:30.624Z,97553.51
2023-03-10T19:51:01.443Z,97553.58
2023-03-10T19:53:33.794Z,97553.82
2023-03-10T19:56:07.868Z,97550.71
2023-03-10T19:58:39.630Z,97546.29
2023-03-10T20:01:18.902Z,97545.93
2023-03-10T20:03:50.191Z,97535.22
2023-03-10T20:06:21.486Z,97536.42
2023-03-10T20:08:52.669Z,97530.11
2023-03-10T20:11:23.201Z,97520.98
2023-03-10T20:13:56.081Z,97527.19
2023-03-10T20:16:28.667Z,97524.99
2023-03-10T20:19:00.095Z,97525.05
2023-03-10T20:21:30.589Z,97524.92
2023-03-10T20:24:01.136Z,97524.31
2023-03-10T20:26:31.863Z,97528.76
2023-03-10T20:29:04.936Z,97530.52
2023-03-10T20:31:36.254Z,97531.00
2023-03-10T20:34:08.329Z,97532.33
2023-03-10T20:36:40.073Z,97542.79
2023-03-10T20:39:10.743Z,97538.70
2023-03-10T20:41:43.799Z,97531.66
2023-03-10T20:44:14.873Z,97527.13
2023-03-10T20:46:46.220Z,97520.64
2023-03-10T20:49:17.018Z,97523.59
2023-03-10T20:51:49.065Z,97521.52
2023-03-10T20:54:20.079Z,97520.98
2023-03-10T20:56:50.831Z,97518.34
2023-03-10T20:59:21.613Z,97520.36
2023-03-10T21:01:51.710Z,97520.85
2023-03-10T21:04:21.941Z,97516.04
2023-03-10T21:06:56.033Z,97514.13
2023-03-10T21:09:28.442Z,97513.30
2023-03-10T21:12:00.306Z,97509.26
2023-03-10T21:14:29.699Z,97508.45
2023-03-10T21:17:04.564Z,97499.86
2023-03-10T21:19:35.167Z,97496.47
2023-03-10T21:22:05.818Z,97499.84
2023-03-10T21:24:35.114Z,97496.38
2023-03-10T21:27:06.370Z,97493.99
2023-03-10T21:29:37.239Z,97492.64
2023-03-10T21:32:07.405Z,97489.89
2023-03-10T21:34:36.308Z,97487.63
2023-03-10T21:37:06.934Z,97491.12
2023-03-10T21:39:38.090Z,97486.15
2023-03-10T21:42:07.105Z,97483.88
2023-03-10T21:44:36.357Z,97481.55
2023-03-10T21:47:05.321Z,97480.85
2023-03-10T21:49:34.456Z,97482.23
2023-03-10T21:52:04.374Z,97483.61
2023-03-10T21:54:33.414Z,97486.61
2023-03-10T21:57:02.245Z,97485.10
2023-03-10T21:59:31.052Z,97481.02
2023-03-10T22:01:59.932Z,97478.95
2023-03-10T22:04:28.743Z,97474.47
2023-03-10T22:06:57.398Z,97477.01
2023-03-10T22:09:26.088Z,97477.81
2023-03-10T22:11:54.750Z,97477.51
2023-03-10T22:14:24.565Z,97475.73
2023-03-10T22:16:53.270Z,97473.80
2023-03-10T22:19:22.059Z,97470.01
2023-03-10T22:21:51.706Z,97468.25
2023-03-10T22:24:20.349Z,97462.39
2023-03-10T22:26:48.929Z,97458.16
2023-03-10T22:29:17.822Z,97455.77
2023-03-10T22:31:47.229Z,97458.95
2023-03-10T22:34:16.024Z,97452.95
2023-03-10T22:36:44.607Z,97449.84
2023-03-10T22:39:14.603Z,97445.64
2023-03-10T22:41:43.191Z,97447.48
2023-03-10T22:44:11.873Z,97449.73
2023-03-10T22:46:44.551Z,97451.84
2023-03-10T22:49:14.593Z,97444.81
2023-03-10T22:51:43.355Z,97444.35
2023-03-10T22:54:12.155Z,97446.16
2023-03-10T22:56:40.516Z,97448.97
2023-03-10T22:59:09.122Z,97448.54
2023-03-10T23:01:38.317Z,97448.98
2023-03-10T23:04:07.404Z,97443.27
2023-03-10T23:06:36.299Z,97442.69
2023-03-10T23:09:07.419Z,97439.16
2023-03-10T23:11:37.346Z,97438.38
2023-03-10T23:14:06.127Z,97441.63
2023-03-10T23:16:36.839Z,97435.79
2023-03-10T23:19:08.503Z,97438.51
2023-03-10T23:21:37.633Z,97437.71
2023-03-10T23:24:06.812Z,97436.58
2023-03-10T23:26:37.749Z,97436.67
2023-03-10T23:29:06.349Z,97434.54
2023-03-10T23:31:35.142Z,97430.06
2023-03-10T23:34:03.913Z,97428.50
2023-03-10T23:36:32.912Z,97425.59
2023-03-10T23:39:01.726Z,97424.66
2023-03-10T23:41:30.388Z,97426.61
2023-03-10T23:43:59.161Z,97430.23
2023-03-10T23:46:27.850Z,97423.58
2023-03-10T23:48:56.543Z,97424.30
2023-03-10T23:51:25.943Z,97422.02
2023-03-10T23:53:54.742Z,97425.09
2023-03-10T23:56:23.423Z,97425.23
2023-03-10T23:58:52.235Z,97424.76
